createdAt,value
2023-04-16T00:01:30.437Z,12.88
2023-04-16T00:04:03.207Z,13.57
2023-04-16T00:06:36.297Z,14.02
2023-04-16T00:09:09.351Z,14.10
2023-04-16T00:11:41.763Z,13.82
2023-04-16T00:14:14.306Z,13.65
2023-04-16T00:16:46.845Z,13.25
2023-04-16T00:19:19.244Z,13.82
2023-04-16T00:21:51.669Z,13.90
2023-04-16T00:24:24.180Z,12.93
2023-04-16T00:26:57.077Z,13.25
2023-04-16T00:29:31.037Z,12.90
2023-04-16T00:32:04.590Z,13.77
2023-04-16T00:34:37.298Z,14.50
2023-04-16T00:37:09.707Z,12.55
2023-04-16T00:39:41.772Z,13.60
2023-04-16T00:42:13.989Z,13.75
2023-04-16T00:44:46.200Z,13.07
2023-04-16T00:47:19.779Z,13.90
2023-04-16T00:49:52.374Z,12.35
2023-04-16T00:52:26.057Z,14.98
2023-04-16T00:54:59.195Z,13.18
2023-04-16T00:57:31.576Z,12.02
2023-04-16T01:00:04.118Z,13.50
2023-04-16T01:02:37.399Z,12.68
2023-04-16T01:05:09.999Z,12.85
2023-04-16T01:07:42.595Z,13.13
2023-04-16T01:10:14.601Z,13.50
2023-04-16T01:12:46.717Z,13.57
2023-04-16T01:15:18.823Z,12.80
2023-04-16T01:17:51.099Z,12.63
2023-04-16T01:20:23.578Z,13.05
2023-04-16T01:22:56.479Z,11.73
2023-04-16T01:25:28.892Z,11.63
2023-04-16T01:28:01.362Z,12.52
2023-04-16T01:30:33.709Z,11.70
2023-04-16T01:33:07.296Z,12.50
2023-04-16T01:35:42.577Z,11.48
2023-04-16T01:38:14.691Z,11.38
2023-04-16T01:40:46.915Z,12.10
2023-04-16T01:43:19.041Z,12.27
2023-04-16T01:45:52.038Z,11.32
2023-04-16T01:48:30.668Z,10.75
2023-04-16T01:51:02.759Z,11.68
2023-04-16T01:53:37.234Z,11.65
2023-04-16T01:56:09.413Z,11.98
2023-04-16T01:58:42.859Z,11.38
2023-04-16T02:01:17.203Z,12.23
2023-04-16T02:03:49.860Z,11.25
2023-04-16T02:06:22.570Z,11.43
2023-04-16T02:08:54.601Z,11.63
2023-04-16T02:11:26.702Z,12.35
2023-04-16T02:13:58.683Z,11.32
2023-04-16T02:16:31.148Z,11.80
2023-04-16T02:19:04.261Z,12.60
2023-04-16T02:21:36.502Z,12.25
2023-04-16T02:24:08.557Z,12.35
2023-04-16T02:26:40.800Z,13.05
2023-04-16T02:29:13.333Z,12.00
2023-04-16T02:31:46.708Z,12.52
2023-04-16T02:34:20.031Z,12.43
2023-04-16T02:36:52.221Z,12.65
2023-04-16T02:39:25.274Z,12.13
2023-04-16T02:41:58.025Z,12.30
2023-04-16T02:44:31.426Z,12.90
2023-04-16T02:47:03.522Z,11.15
2023-04-16T02:49:35.961Z,12.23
2023-04-16T02:52:08.036Z,13.10
2023-04-16T02:54:40.007Z,13.85
2023-04-16T02:57:12.071Z,12.35
2023-04-16T02:59:44.154Z,13.20
2023-04-16T03:02:16.667Z,13.90
2023-04-16T03:04:48.830Z,12.50
2023-04-16T03:07:21.208Z,12.80
2023-04-16T03:09:53.186Z,13.45
2023-04-16T03:12:25.303Z,13.35
2023-04-16T03:14:57.336Z,12.85
2023-04-16T03:17:29.752Z,12.65
2023-04-16T03:20:02.183Z,13.27
2023-04-16T03:22:36.691Z,13.20
2023-04-16T03:25:09.737Z,13.23
2023-04-16T03:27:41.980Z,14.50
2023-04-16T03:30:14.877Z,12.25
2023-04-16T03:32:47.285Z,13.95
2023-04-16T03:35:19.402Z,13.52
2023-04-16T03:37:51.822Z,14.40
2023-04-16T03:40:23.887Z,14.50
2023-04-16T03:42:56.232Z,12.85
2023-04-16T03:45:28.231Z,15.05
2023-04-16T03:48:00.483Z,14.10
2023-04-16T03:50:32.536Z,12.80
2023-04-16T03:53:04.597Z,14.27
2023-04-16T03:55:36.775Z,13.90
2023-04-16T03:58:08.921Z,12.90
2023-04-16T04:00:43.021Z,14.18
2023-04-16T04:03:17.472Z,14.43
2023-04-16T04:05:49.861Z,14.40
2023-04-16T04:08:22.086Z,13.85
2023-04-16T04:10:54.897Z,13.15
2023-04-16T04:13:30.207Z,14.57
2023-04-16T04:16:09.265Z,14.70
2023-04-16T04:18:44.616Z,13.10
2023-04-16T04:21:16.802Z,14.38
2023-04-16T04:23:49.249Z,12.98
2023-04-16T04:26:21.475Z,13.00
2023-04-16T04:28:53.669Z,11.85
2023-04-16T04:31:25.893Z,12.30
2023-04-16T04:33:58.088Z,12.70
2023-04-16T04:36:30.149Z,14.07
2023-04-16T04:39:03.740Z,13.52
2023-04-16T04:41:36.110Z,12.95
2023-04-16T04:44:08.174Z,13.40
2023-04-16T04:46:40.724Z,13.68
2023-04-16T04:49:12.761Z,13.63
2023-04-16T04:51:44.819Z,13.40
2023-04-16T04:54:21.419Z,14.40
2023-04-16T04:56:53.588Z,13.10
2023-04-16T04:59:25.914Z,12.13
2023-04-16T05:01:59.846Z,15.13
2023-04-16T05:04:33.992Z,12.05
2023-04-16T05:07:06.594Z,12.55
2023-04-16T05:09:38.863Z,11.43
2023-04-16T05:12:10.944Z,11.82
2023-04-16T05:14:43.200Z,13.30
2023-04-16T05:17:15.207Z,13.48
2023-04-16T05:19:47.329Z,14.07
2023-04-16T05:22:19.268Z,15.95
2023-04-16T05:24:51.724Z,14.50
2023-04-16T05:27:23.758Z,16.65
2023-04-16T05:29:55.823Z,17.70
2023-04-16T05:32:28.015Z,17.05
2023-04-16T05:35:00.111Z,16.73
2023-04-16T05:37:32.388Z,17.98
2023-04-16T05:40:04.632Z,19.00
2023-04-16T05:42:37.492Z,19.30
2023-04-16T05:45:10.051Z,19.95
2023-04-16T05:47:42.379Z,18.27
2023-04-16T05:50:14.929Z,18.17
2023-04-16T05:52:47.331Z,18.63
2023-04-16T05:55:19.414Z,19.33
2023-04-16T05:57:51.801Z,20.90
2023-04-16T06:00:24.043Z,20.90
2023-04-16T06:02:56.293Z,20.88
2023-04-16T06:05:29.160Z,20.15
2023-04-16T06:08:01.759Z,21.27
2023-04-16T06:10:33.917Z,20.63
2023-04-16T06:13:06.219Z,20.52
2023-04-16T06:15:38.324Z,20.15
2023-04-16T06:18:10.303Z,21.10
2023-04-16T06:20:42.365Z,22.00
2023-04-16T06:23:14.331Z,19.20
2023-04-16T06:25:47.150Z,20.50
2023-04-16T06:28:19.133Z,20.67
2023-04-16T06:30:51.237Z,21.30
2023-04-16T06:33:23.508Z,20.25
2023-04-16T06:35:55.688Z,20.90
2023-04-16T06:38:27.704Z,22.25
2023-04-16T06:40:59.961Z,21.50
2023-04-16T06:43:33.572Z,20.13
2023-04-16T06:46:05.915Z,22.10
2023-04-16T06:48:37.880Z,20.08
2023-04-16T06:51:10.167Z,22.35
2023-04-16T06:53:42.680Z,22.27
2023-04-16T06:56:14.871Z,21.30
2023-04-16T06:58:47.192Z,21.40
2023-04-16T07:01:19.385Z,20.85
2023-04-16T07:03:51.790Z,21.23
2023-04-16T07:06:24.900Z,20.25
2023-04-16T07:08:57.948Z,21.17
2023-04-16T07:11:30.707Z,20.00
2023-04-16T07:14:59.854Z,21.40
2023-04-16T07:17:32.206Z,20.92
2023-04-16T07:20:04.710Z,21.95
2023-04-16T07:22:37.922Z,19.42
2023-04-16T07:25:10.476Z,19.00
2023-04-16T07:27:42.625Z,19.58
2023-04-16T07:30:24.760Z,19.55
2023-04-16T07:33:04.422Z,20.70
2023-04-16T07:35:37.069Z,19.25
2023-04-16T07:38:09.101Z,19.85
2023-04-16T07:40:41.281Z,18.90
2023-04-16T07:43:16.390Z,18.55
2023-04-16T07:45:48.630Z,18.25
2023-04-16T07:48:21.987Z,19.58
2023-04-16T07:50:54.394Z,18.85
2023-04-16T07:53:26.586Z,17.98
2023-04-16T07:55:58.662Z,18.45
2023-04-16T07:58:30.911Z,17.63
2023-04-16T08:01:03.179Z,18.23
2023-04-16T08:03:35.842Z,18.13
2023-04-16T08:06:08.255Z,18.40
2023-04-16T08:08:40.280Z,17.52
2023-04-16T08:11:12.644Z,16.85
2023-04-16T08:13:45.019Z,18.45
2023-04-16T08:16:17.538Z,16.45
2023-04-16T08:18:49.672Z,17.40
2023-04-16T08:21:22.328Z,16.40
2023-04-16T08:23:54.767Z,17.33
2023-04-16T08:26:27.195Z,17.70
2023-04-16T08:28:59.442Z,17.35
2023-04-16T08:31:32.188Z,15.85
2023-04-16T08:34:04.923Z,17.70
2023-04-16T08:36:37.049Z,17.65
2023-04-16T08:39:09.746Z,17.85
2023-04-16T08:41:45.782Z,16.80
2023-04-16T08:44:26.816Z,19.55
2023-04-16T08:47:04.336Z,17.48
2023-04-16T08:49:48.491Z,16.98
2023-04-16T08:52:24.359Z,15.70
2023-04-16T08:55:09.488Z,16.67
2023-04-16T08:57:53.625Z,17.55
2023-04-16T09:00:31.744Z,18.00
2023-04-16T09:03:04.919Z,17.45
2023-04-16T09:05:42.192Z,17.60
2023-04-16T09:08:15.223Z,17.33
2023-04-16T09:10:49.741Z,17.13
2023-04-16T09:13:24.003Z,17.42
2023-04-16T09:15:57.360Z,17.50
2023-04-16T09:18:31.281Z,18.77
2023-04-16T09:21:04.853Z,17.08
2023-04-16T09:23:41.209Z,17.13
2023-04-16T09:26:14.117Z,16.63
2023-04-16T09:28:52.661Z,17.42
2023-04-16T09:31:25.087Z,16.33
2023-04-16T09:34:12.052Z,16.73
2023-04-16T09:36:44.357Z,16.98
2023-04-16T09:39:20.282Z,16.85
2023-04-16T09:42:00.380Z,17.10
2023-04-16T09:44:40.637Z,16.02
2023-04-16T09:47:13.147Z,15.23
2023-04-16T09:49:47.185Z,16.80
2023-04-16T09:52:22.846Z,16.83
2023-04-16T09:54:55.610Z,15.73
2023-04-16T09:57:28.203Z,15.50
2023-04-16T10:00:06.496Z,16.73
2023-04-16T10:02:42.826Z,16.67
2023-04-16T10:05:18.846Z,16.38
2023-04-16T10:07:51.628Z,17.23
2023-04-16T10:10:24.591Z,18.58
2023-04-16T10:12:58.066Z,18.27
2023-04-16T10:15:31.111Z,16.75
2023-04-16T10:18:05.362Z,17.20
2023-04-16T10:20:38.012Z,17.67
2023-04-16T10:23:11.177Z,15.88
2023-04-16T10:25:45.114Z,16.10
2023-04-16T10:28:19.558Z,15.73
2023-04-16T10:30:53.298Z,15.82
2023-04-16T10:33:45.602Z,17.20
2023-04-16T10:36:25.577Z,16.13
2023-04-16T10:39:01.372Z,16.52
2023-04-16T10:41:33.938Z,17.02
2023-04-16T10:44:12.459Z,15.93
2023-04-16T10:46:51.439Z,15.77
2023-04-16T10:49:27.282Z,15.85
2023-04-16T10:52:07.882Z,16.45
2023-04-16T10:54:43.445Z,15.40
2023-04-16T10:57:19.914Z,14.50
2023-04-16T10:59:55.298Z,13.25
2023-04-16T11:02:29.863Z,14.85
2023-04-16T11:05:02.476Z,12.77
2023-04-16T11:07:36.437Z,13.02
2023-04-16T11:10:18.691Z,12.07
2023-04-16T11:12:51.119Z,11.85
2023-04-16T11:15:24.965Z,12.43
2023-04-16T11:18:04.229Z,12.05
2023-04-16T11:20:43.296Z,11.77
2023-04-16T11:23:16.296Z,9.55
2023-04-16T11:25:52.047Z,11.30
2023-04-16T11:28:34.458Z,11.80
2023-04-16T11:31:12.851Z,10.48
2023-04-16T11:33:48.647Z,11.07
2023-04-16T11:36:21.428Z,11.60
2023-04-16T11:39:03.721Z,10.50
2023-04-16T11:41:43.774Z,11.18
2023-04-16T11:44:22.128Z,12.30
2023-04-16T11:46:56.924Z,9.32
2023-04-16T11:49:32.294Z,9.05
2023-04-16T11:52:04.635Z,9.20
2023-04-16T11:54:37.949Z,8.35
2023-04-16T11:57:10.648Z,8.57
2023-04-16T12:00:01.906Z,7.80
2023-04-16T12:02:43.107Z,9.70
2023-04-16T12:05:35.316Z,7.50
2023-04-16T12:08:13.167Z,8.27
2023-04-16T12:11:00.105Z,8.85
2023-04-16T12:13:40.202Z,7.45
2023-04-16T12:16:21.454Z,7.85
2023-04-16T12:19:02.143Z,7.72
2023-04-16T12:21:44.880Z,7.10
2023-04-16T12:24:24.896Z,6.90
2023-04-16T12:27:03.455Z,7.00
2023-04-16T12:29:38.928Z,7.70
2023-04-16T12:32:37.565Z,6.60
2023-04-16T12:35:11.931Z,7.20
2023-04-16T12:37:45.738Z,7.75
2023-04-16T12:40:18.517Z,8.23
2023-04-16T12:42:51.821Z,7.72
2023-04-16T12:45:25.853Z,7.10
2023-04-16T12:47:59.875Z,7.03
2023-04-16T12:50:32.700Z,7.50
2023-04-16T12:53:05.505Z,8.00
2023-04-16T12:55:38.792Z,7.28
2023-04-16T12:58:12.556Z,8.05
2023-04-16T13:00:45.321Z,8.50
2023-04-16T13:03:18.804Z,8.40
2023-04-16T13:05:53.079Z,8.45
2023-04-16T13:08:26.260Z,8.40
2023-04-16T13:10:59.981Z,8.25
2023-04-16T13:13:33.313Z,8.00
2023-04-16T13:16:19.980Z,8.25
2023-04-16T13:18:53.023Z,9.13
2023-04-16T13:21:25.806Z,9.43
2023-04-16T13:23:59.454Z,9.90
2023-04-16T13:26:32.092Z,9.40
2023-04-16T13:29:05.424Z,9.07
2023-04-16T13:31:38.554Z,9.32
2023-04-16T13:34:12.732Z,9.60
2023-04-16T13:36:45.527Z,9.60
2023-04-16T13:39:18.594Z,8.70
2023-04-16T13:41:51.796Z,8.85
2023-04-16T13:44:25.021Z,9.68
2023-04-16T13:46:58.325Z,11.25
2023-04-16T13:49:35.597Z,8.70
2023-04-16T13:52:09.085Z,9.40
2023-04-16T13:54:42.080Z,10.75
2023-04-16T13:57:15.060Z,9.52
2023-04-16T14:00:40.639Z,11.60
2023-04-16T14:03:14.394Z,10.15
2023-04-16T14:05:47.271Z,10.38
2023-04-16T14:08:21.784Z,10.75
2023-04-16T14:10:55.658Z,9.90
2023-04-16T14:13:37.650Z,10.65
2023-04-16T14:16:10.479Z,10.50
2023-04-16T14:18:43.797Z,12.20
2023-04-16T14:21:16.453Z,11.18
2023-04-16T14:23:49.765Z,12.75
2023-04-16T14:26:22.939Z,12.23
2023-04-16T14:28:55.540Z,11.60
2023-04-16T14:31:28.160Z,12.82
2023-04-16T14:34:01.154Z,12.23
2023-04-16T14:36:33.784Z,13.02
2023-04-16T14:39:07.240Z,12.00
2023-04-16T14:41:41.340Z,11.52
2023-04-16T14:44:14.053Z,15.52
2023-04-16T14:46:47.767Z,13.20
2023-04-16T14:49:20.282Z,14.82
2023-04-16T14:51:52.889Z,12.88
2023-04-16T14:54:25.862Z,13.63
2023-04-16T14:56:59.518Z,14.10
2023-04-16T14:59:33.039Z,14.25
2023-04-16T15:02:06.934Z,14.18
2023-04-16T15:04:39.694Z,15.38
2023-04-16T15:07:12.278Z,14.23
2023-04-16T15:09:44.769Z,15.02
2023-04-16T15:12:19.141Z,15.55
2023-04-16T15:14:52.051Z,16.60
2023-04-16T15:17:25.124Z,17.02
2023-04-16T15:19:57.778Z,16.77
2023-04-16T15:22:30.027Z,17.08
2023-04-16T15:25:02.560Z,16.40
2023-04-16T15:27:36.844Z,17.40
2023-04-16T15:30:09.841Z,16.80
2023-04-16T15:32:45.467Z,16.42
2023-04-16T15:35:17.743Z,16.63
2023-04-16T15:37:52.745Z,16.65
2023-04-16T15:40:34.137Z,16.50
2023-04-16T15:43:08.436Z,17.20
2023-04-16T15:45:41.067Z,15.98
2023-04-16T15:48:13.825Z,16.23
2023-04-16T15:50:46.532Z,17.42
2023-04-16T15:53:19.113Z,17.77
2023-04-16T15:55:53.850Z,17.25
2023-04-16T15:58:26.473Z,17.90
2023-04-16T16:00:58.638Z,18.63
2023-04-16T16:03:33.040Z,20.15
2023-04-16T16:06:08.600Z,18.58
2023-04-16T16:08:43.653Z,19.85
2023-04-16T16:11:53.646Z,18.60
2023-04-16T16:14:27.152Z,18.30
2023-04-16T16:17:00.248Z,19.75
2023-04-16T16:19:35.692Z,19.77
2023-04-16T16:22:09.502Z,19.05
2023-04-16T16:24:41.921Z,19.17
2023-04-16T16:27:14.370Z,19.00
2023-04-16T16:29:47.738Z,19.92
2023-04-16T16:32:20.166Z,19.65
2023-04-16T16:34:53.037Z,20.55
2023-04-16T16:37:29.202Z,20.20
2023-04-16T16:40:01.699Z,22.02
2023-04-16T16:42:38.320Z,19.85
2023-04-16T16:45:11.290Z,19.33
2023-04-16T16:47:46.629Z,20.70
2023-04-16T16:50:21.097Z,21.67
2023-04-16T16:52:58.328Z,19.48
2023-04-16T16:55:31.978Z,20.70
2023-04-16T16:58:06.685Z,20.10
2023-04-16T17:00:41.728Z,21.25
2023-04-16T17:03:14.659Z,20.10
2023-04-16T17:05:47.956Z,21.17
2023-04-16T17:08:20.466Z,21.48
2023-04-16T17:10:53.101Z,20.15
2023-04-16T17:13:26.042Z,20.92
2023-04-16T17:15:59.128Z,19.30
2023-04-16T17:18:32.081Z,21.10
2023-04-16T17:21:04.829Z,20.85
2023-04-16T17:23:41.031Z,20.48
2023-04-16T17:26:13.945Z,20.77
2023-04-16T17:28:47.766Z,21.13
2023-04-16T17:31:20.670Z,20.10
2023-04-16T17:33:54.874Z,21.85
2023-04-16T17:36:27.827Z,21.50
2023-04-16T17:39:01.789Z,21.35
2023-04-16T17:41:34.818Z,22.33
2023-04-16T17:44:09.336Z,23.20
2023-04-16T17:46:43.128Z,20.65
2023-04-16T17:49:15.767Z,20.70
2023-04-16T17:52:07.445Z,21.52
2023-04-16T17:54:43.857Z,20.65
2023-04-16T17:57:17.253Z,22.92
2023-04-16T17:59:53.155Z,22.30
2023-04-16T18:02:29.367Z,21.77
2023-04-16T18:05:03.629Z,23.83
2023-04-16T18:07:39.650Z,20.98
2023-04-16T18:10:13.283Z,21.88
2023-04-16T18:12:47.914Z,23.73
2023-04-16T18:15:21.333Z,22.40
2023-04-16T18:17:55.069Z,22.58
2023-04-16T18:20:28.733Z,22.00
2023-04-16T18:23:03.144Z,21.33
2023-04-16T18:25:36.707Z,22.30
2023-04-16T18:28:14.003Z,20.88
2023-04-16T18:30:50.262Z,33.28
2023-04-16T18:33:44.442Z,22.00
2023-04-16T18:36:18.975Z,22.75
2023-04-16T18:39:00.786Z,21.88
2023-04-16T18:41:38.082Z,22.35
2023-04-16T18:44:13.083Z,19.95
2023-04-16T18:46:47.132Z,22.23
2023-04-16T18:49:21.553Z,21.98
2023-04-16T18:51:56.705Z,21.40
2023-04-16T18:54:31.053Z,21.13
2023-04-16T18:57:05.163Z,22.67
2023-04-16T18:59:41.189Z,22.30
2023-04-16T19:02:14.872Z,22.38
2023-04-16T19:04:49.449Z,22.98
2023-04-16T19:07:23.154Z,21.83
2023-04-16T19:09:56.920Z,22.35
2023-04-16T19:12:30.490Z,22.85
2023-04-16T19:15:04.470Z,22.13
2023-04-16T19:17:40.037Z,23.60
2023-04-16T19:20:15.957Z,24.70
2023-04-16T19:22:49.782Z,23.30
2023-04-16T19:25:23.834Z,22.60
2023-04-16T19:28:05.975Z,23.23
2023-04-16T19:30:41.354Z,23.25
2023-04-16T19:33:16.367Z,21.58
2023-04-16T19:35:51.084Z,22.83
2023-04-16T19:38:30.546Z,23.95
2023-04-16T19:41:04.360Z,23.35
2023-04-16T19:43:38.058Z,23.45
2023-04-16T19:46:11.936Z,24.05
2023-04-16T19:48:49.050Z,25.10
2023-04-16T19:51:22.394Z,24.40
2023-04-16T19:53:56.951Z,25.65
2023-04-16T19:56:30.940Z,23.40
2023-04-16T19:59:04.766Z,24.80
2023-04-16T20:01:38.725Z,27.15
2023-04-16T20:04:13.240Z,24.52
2023-04-16T20:06:47.023Z,25.10
2023-04-16T20:09:20.680Z,25.52
2023-04-16T20:11:55.565Z,24.50
2023-04-16T20:14:33.202Z,25.65
2023-04-16T20:17:10.380Z,24.67
2023-04-16T20:19:47.755Z,24.77
2023-04-16T20:22:21.420Z,23.83
2023-04-16T20:24:55.206Z,24.30
2023-04-16T20:27:29.108Z,24.20
2023-04-16T20:30:04.065Z,23.10
2023-04-16T20:32:38.303Z,25.80
2023-04-16T20:35:28.450Z,25.95
2023-04-16T20:38:01.853Z,22.58
2023-04-16T20:40:38.853Z,25.08
2023-04-16T20:43:14.537Z,23.00
2023-04-16T20:45:50.468Z,24.58
2023-04-16T20:49:07.029Z,23.55
2023-04-16T20:51:39.608Z,22.48
2023-04-16T20:54:12.463Z,22.60
2023-04-16T20:56:45.007Z,20.25
2023-04-16T20:59:18.543Z,21.77
2023-04-16T21:01:52.528Z,20.05
2023-04-16T21:04:26.629Z,20.58
2023-04-16T21:07:04.799Z,20.25
2023-04-16T21:09:38.049Z,21.10
2023-04-16T21:12:10.600Z,21.02
2023-04-16T21:14:43.164Z,20.67
2023-04-16T21:17:15.601Z,20.88
2023-04-16T21:19:48.773Z,20.50
2023-04-16T21:22:21.598Z,20.80
2023-04-16T21:24:56.316Z,21.92
2023-04-16T21:27:28.984Z,20.85
2023-04-16T21:30:02.218Z,21.83
2023-04-16T21:32:37.795Z,21.30
2023-04-16T21:35:12.174Z,22.58
2023-04-16T21:37:44.996Z,21.70
2023-04-16T21:40:17.724Z,22.55
2023-04-16T21:42:50.481Z,21.70
2023-04-16T21:45:22.749Z,21.90
2023-04-16T21:47:54.947Z,22.10
2023-04-16T21:50:27.248Z,21.23
2023-04-16T21:52:59.776Z,23.00
2023-04-16T21:55:36.328Z,22.15
2023-04-16T21:58:08.774Z,23.05
2023-04-16T22:00:41.090Z,24.88
2023-04-16T22:03:14.483Z,22.40
2023-04-16T22:05:48.048Z,22.00
2023-04-16T22:08:24.907Z,21.33
2023-04-16T22:11:01.985Z,23.02
2023-04-16T22:13:36.474Z,21.70
2023-04-16T22:16:36.880Z,20.95
2023-04-16T22:19:09.630Z,22.13
2023-04-16T22:21:41.839Z,21.70
2023-04-16T22:24:14.482Z,21.05
2023-04-16T22:26:46.980Z,18.95
2023-04-16T22:29:19.306Z,19.15
2023-04-16T22:31:51.689Z,19.42
2023-04-16T22:34:24.006Z,19.02
2023-04-16T22:36:56.809Z,16.88
2023-04-16T22:40:21.001Z,18.42
2023-04-16T22:42:53.349Z,18.98
2023-04-16T22:45:26.299Z,17.95
2023-04-16T22:47:58.807Z,18.25
2023-04-16T22:50:31.577Z,18.35
2023-04-16T22:53:03.861Z,18.67
2023-04-16T22:55:36.586Z,17.50
2023-04-16T22:58:08.765Z,18.35
2023-04-16T23:00:41.036Z,17.73
2023-04-16T23:03:15.243Z,16.83
2023-04-16T23:05:49.047Z,17.40
2023-04-16T23:08:21.577Z,16.90
2023-04-16T23:10:53.687Z,18.35
2023-04-16T23:13:26.172Z,17.27
2023-04-16T23:15:58.634Z,17.83
2023-04-16T23:18:31.358Z,18.13
2023-04-16T23:21:03.551Z,17.60
2023-04-16T23:23:35.894Z,18.70
2023-04-16T23:26:07.939Z,17.42
2023-04-16T23:28:40.523Z,18.77
2023-04-16T23:31:13.171Z,17.83
2023-04-16T23:33:45.328Z,17.42
2023-04-16T23:36:17.694Z,16.85
2023-04-16T23:38:50.196Z,16.90
2023-04-16T23:41:23.691Z,18.15
2023-04-16T23:43:55.962Z,18.30
2023-04-16T23:46:28.394Z,17.88
2023-04-16T23:49:00.581Z,17.77
2023-04-16T23:51:32.660Z,18.55
2023-04-16T23:54:04.796Z,18.38
2023-04-16T23:56:37.060Z,18.10
2023-04-16T23:59:12.740Z,17.45
